sensor_id;sensor_type;location;lat;lon;timestamp;P1;durP1;ratioP1;P2;durP2;ratioP2
9042;SDS011;4556;49.150;8.808;2023-02-15T00:00:02;68.33;;;27.37;;
9042;SDS011;4556;49.150;8.808;2023-02-15T00:02:30;72.80;;;25.83;;
9042;SDS011;4556;49.150;8.808;2023-02-15T00:04:58;64.17;;;25.73;;
9042;SDS011;4556;49.150;8.808;2023-02-15T00:07:25;50.40;;;25.03;;
9042;SDS011;4556;49.150;8.808;2023-02-15T00:09:52;68.53;;;26.50;;
9042;SDS011;4556;49.150;8.808;2023-02-15T00:12:19;76.63;;;24.33;;
9042;SDS011;4556;49.150;8.808;2023-02-15T00:14:47;78.97;;;24.87;;
9042;SDS011;4556;49.150;8.808;2023-02-15T00:17:15;53.40;;;23.90;;
9042;SDS011;4556;49.150;8.808;2023-02-15T00:19:43;87.37;;;24.73;;
9042;SDS011;4556;49.150;8.808;2023-02-15T00:22:10;40.63;;;22.13;;
9042;SDS011;4556;49.150;8.808;2023-02-15T00:24:37;82.97;;;23.37;;
9042;SDS011;4556;49.150;8.808;2023-02-15T00:27:04;72.53;;;25.70;;
9042;SDS011;4556;49.150;8.808;2023-02-15T00:29:31;86.90;;;25.20;;
9042;SDS011;4556;49.150;8.808;2023-02-15T00:31:58;64.33;;;23.07;;
9042;SDS011;4556;49.150;8.808;2023-02-15T00:34:27;102.97;;;24.43;;
9042;SDS011;4556;49.150;8.808;2023-02-15T00:36:54;65.97;;;22.93;;
9042;SDS011;4556;49.150;8.808;2023-02-15T00:39:21;56.03;;;21.17;;
9042;SDS011;4556;49.150;8.808;2023-02-15T00:41:50;66.00;;;23.70;;
9042;SDS011;4556;49.150;8.808;2023-02-15T00:44:17;37.97;;;22.33;;
9042;SDS011;4556;49.150;8.808;2023-02-15T00:46:45;51.10;;;21.57;;
9042;SDS011;4556;49.150;8.808;2023-02-15T00:49:12;38.83;;;21.67;;
9042;SDS011;4556;49.150;8.808;2023-02-15T00:51:40;68.93;;;22.43;;
9042;SDS011;4556;49.150;8.808;2023-02-15T00:54:08;65.77;;;22.97;;
9042;SDS011;4556;49.150;8.808;2023-02-15T00:56:35;57.63;;;23.43;;
9042;SDS011;4556;49.150;8.808;2023-02-15T00:59:02;66.43;;;22.27;;
9042;SDS011;4556;49.150;8.808;2023-02-15T01:01:29;41.00;;;21.37;;
9042;SDS011;4556;49.150;8.808;2023-02-15T01:03:56;119.83;;;23.57;;
9042;SDS011;4556;49.150;8.808;2023-02-15T01:06:23;38.57;;;20.93;;
9042;SDS011;4556;49.150;8.808;2023-02-15T01:08:52;68.20;;;24.40;;
9042;SDS011;4556;49.150;8.808;2023-02-15T01:11:20;45.30;;;22.60;;
9042;SDS011;4556;49.150;8.808;2023-02-15T01:13:48;58.87;;;22.17;;
9042;SDS011;4556;49.150;8.808;2023-02-15T01:16:16;69.33;;;21.97;;
9042;SDS011;4556;49.150;8.808;2023-02-15T01:18:50;79.63;;;23.27;;
9042;SDS011;4556;49.150;8.808;2023-02-15T01:21:20;100.77;;;23.20;;
9042;SDS011;4556;49.150;8.808;2023-02-15T01:23:48;65.97;;;20.93;;
9042;SDS011;4556;49.150;8.808;2023-02-15T01:26:17;70.27;;;21.47;;
9042;SDS011;4556;49.150;8.808;2023-02-15T01:28:45;56.67;;;22.97;;
9042;SDS011;4556;49.150;8.808;2023-02-15T01:31:13;78.63;;;23.77;;
9042;SDS011;4556;49.150;8.808;2023-02-15T01:33:41;48.37;;;22.23;;
9042;SDS011;4556;49.150;8.808;2023-02-15T01:36:09;41.63;;;20.93;;
9042;SDS011;4556;49.150;8.808;2023-02-15T01:38:37;51.47;;;22.00;;
9042;SDS011;4556;49.150;8.808;2023-02-15T01:41:06;66.60;;;23.53;;
9042;SDS011;4556;49.150;8.808;2023-02-15T01:43:55;66.17;;;21.50;;
9042;SDS011;4556;49.150;8.808;2023-02-15T01:46:24;84.80;;;22.53;;
9042;SDS011;4556;49.150;8.808;2023-02-15T01:48:56;65.90;;;23.37;;
9042;SDS011;4556;49.150;8.808;2023-02-15T01:51:30;73.07;;;22.43;;
9042;SDS011;4556;49.150;8.808;2023-02-15T01:54:01;62.03;;;21.70;;
9042;SDS011;4556;49.150;8.808;2023-02-15T01:56:33;45.07;;;20.13;;
9042;SDS011;4556;49.150;8.808;2023-02-15T01:59:04;59.93;;;21.77;;
9042;SDS011;4556;49.150;8.808;2023-02-15T02:01:35;64.17;;;20.20;;
9042;SDS011;4556;49.150;8.808;2023-02-15T02:04:05;76.97;;;20.77;;
9042;SDS011;4556;49.150;8.808;2023-02-15T02:06:37;26.83;;;19.07;;
9042;SDS011;4556;49.150;8.808;2023-02-15T02:09:05;56.20;;;20.60;;
9042;SDS011;4556;49.150;8.808;2023-02-15T02:11:33;56.47;;;19.83;;
9042;SDS011;4556;49.150;8.808;2023-02-15T02:14:01;48.63;;;20.17;;
9042;SDS011;4556;49.150;8.808;2023-02-15T02:16:31;55.10;;;20.67;;
9042;SDS011;4556;49.150;8.808;2023-02-15T02:19:20;62.87;;;20.97;;
9042;SDS011;4556;49.150;8.808;2023-02-15T02:22:22;82.27;;;21.73;;
9042;SDS011;4556;49.150;8.808;2023-02-15T02:25:24;72.30;;;18.93;;
9042;SDS011;4556;49.150;8.808;2023-02-15T02:28:19;96.77;;;22.03;;
9042;SDS011;4556;49.150;8.808;2023-02-15T02:31:07;66.10;;;18.50;;
9042;SDS011;4556;49.150;8.808;2023-02-15T02:33:53;86.23;;;18.23;;
9042;SDS011;4556;49.150;8.808;2023-02-15T02:36:27;87.40;;;20.50;;
9042;SDS011;4556;49.150;8.808;2023-02-15T02:39:07;87.43;;;20.43;;
9042;SDS011;4556;49.150;8.808;2023-02-15T02:41:48;44.80;;;18.53;;
9042;SDS011;4556;49.150;8.808;2023-02-15T02:44:22;78.30;;;20.80;;
9042;SDS011;4556;49.150;8.808;2023-02-15T02:46:54;45.80;;;19.17;;
9042;SDS011;4556;49.150;8.808;2023-02-15T02:49:33;61.37;;;20.87;;
9042;SDS011;4556;49.150;8.808;2023-02-15T02:52:02;71.43;;;19.23;;
9042;SDS011;4556;49.150;8.808;2023-02-15T02:54:31;61.90;;;19.33;;
9042;SDS011;4556;49.150;8.808;2023-02-15T02:57:01;67.60;;;20.43;;
9042;SDS011;4556;49.150;8.808;2023-02-15T02:59:35;39.10;;;20.00;;
9042;SDS011;4556;49.150;8.808;2023-02-15T03:02:09;63.07;;;21.50;;
9042;SDS011;4556;49.150;8.808;2023-02-15T03:04:45;80.53;;;19.33;;
9042;SDS011;4556;49.150;8.808;2023-02-15T03:07:24;58.87;;;19.00;;
9042;SDS011;4556;49.150;8.808;2023-02-15T03:09:55;90.87;;;22.13;;
9042;SDS011;4556;49.150;8.808;2023-02-15T03:12:26;63.63;;;19.73;;
9042;SDS011;4556;49.150;8.808;2023-02-15T03:14:56;54.00;;;19.17;;
9042;SDS011;4556;49.150;8.808;2023-02-15T03:17:28;69.10;;;20.67;;
9042;SDS011;4556;49.150;8.808;2023-02-15T03:20:02;54.03;;;20.17;;
9042;SDS011;4556;49.150;8.808;2023-02-15T03:22:33;58.93;;;19.17;;
9042;SDS011;4556;49.150;8.808;2023-02-15T03:25:05;46.97;;;18.87;;
9042;SDS011;4556;49.150;8.808;2023-02-15T03:27:38;85.70;;;19.83;;
9042;SDS011;4556;49.150;8.808;2023-02-15T03:30:07;53.70;;;19.83;;
9042;SDS011;4556;49.150;8.808;2023-02-15T03:32:36;77.67;;;20.23;;
9042;SDS011;4556;49.150;8.808;2023-02-15T03:35:07;61.10;;;19.70;;
9042;SDS011;4556;49.150;8.808;2023-02-15T03:37:35;62.70;;;19.30;;
9042;SDS011;4556;49.150;8.808;2023-02-15T03:40:07;68.37;;;19.60;;
9042;SDS011;4556;49.150;8.808;2023-02-15T03:42:56;92.60;;;21.37;;
9042;SDS011;4556;49.150;8.808;2023-02-15T03:45:28;70.60;;;19.77;;
9042;SDS011;4556;49.150;8.808;2023-02-15T03:47:57;87.40;;;20.80;;
9042;SDS011;4556;49.150;8.808;2023-02-15T03:50:29;71.27;;;20.57;;
9042;SDS011;4556;49.150;8.808;2023-02-15T03:53:15;110.07;;;22.23;;
9042;SDS011;4556;49.150;8.808;2023-02-15T03:55:46;64.13;;;19.57;;
9042;SDS011;4556;49.150;8.808;2023-02-15T03:58:13;61.03;;;20.67;;
9042;SDS011;4556;49.150;8.808;2023-02-15T04:00:58;81.77;;;21.90;;
9042;SDS011;4556;49.150;8.808;2023-02-15T04:03:48;71.10;;;21.07;;
9042;SDS011;4556;49.150;8.808;2023-02-15T04:06:22;71.83;;;20.77;;
9042;SDS011;4556;49.150;8.808;2023-02-15T04:08:49;89.53;;;19.73;;
9042;SDS011;4556;49.150;8.808;2023-02-15T04:11:33;112.63;;;23.97;;
9042;SDS011;4556;49.150;8.808;2023-02-15T04:14:00;82.10;;;21.20;;
9042;SDS011;4556;49.150;8.808;2023-02-15T04:16:47;81.23;;;21.30;;
9042;SDS011;4556;49.150;8.808;2023-02-15T04:19:14;51.07;;;21.17;;
9042;SDS011;4556;49.150;8.808;2023-02-15T04:22:00;81.53;;;21.47;;
9042;SDS011;4556;49.150;8.808;2023-02-15T04:24:44;97.37;;;23.30;;
9042;SDS011;4556;49.150;8.808;2023-02-15T04:27:28;68.77;;;21.07;;
9042;SDS011;4556;49.150;8.808;2023-02-15T04:29:55;70.17;;;19.93;;
9042;SDS011;4556;49.150;8.808;2023-02-15T04:32:21;100.80;;;22.27;;
9042;SDS011;4556;49.150;8.808;2023-02-15T04:34:48;109.17;;;20.80;;
9042;SDS011;4556;49.150;8.808;2023-02-15T04:37:17;80.53;;;19.40;;
9042;SDS011;4556;49.150;8.808;2023-02-15T04:39:44;82.77;;;19.43;;
9042;SDS011;4556;49.150;8.808;2023-02-15T04:42:11;79.27;;;23.67;;
9042;SDS011;4556;49.150;8.808;2023-02-15T04:44:38;110.63;;;20.47;;
9042;SDS011;4556;49.150;8.808;2023-02-15T04:47:05;89.37;;;19.57;;
9042;SDS011;4556;49.150;8.808;2023-02-15T04:49:32;57.67;;;19.90;;
9042;SDS011;4556;49.150;8.808;2023-02-15T04:51:59;85.43;;;21.63;;
9042;SDS011;4556;49.150;8.808;2023-02-15T04:54:28;75.13;;;20.87;;
9042;SDS011;4556;49.150;8.808;2023-02-15T04:56:55;67.00;;;21.77;;
9042;SDS011;4556;49.150;8.808;2023-02-15T04:59:22;77.17;;;21.10;;
9042;SDS011;4556;49.150;8.808;2023-02-15T05:01:49;86.10;;;21.17;;
9042;SDS011;4556;49.150;8.808;2023-02-15T05:04:16;72.43;;;20.03;;
9042;SDS011;4556;49.150;8.808;2023-02-15T05:06:43;76.97;;;22.03;;
9042;SDS011;4556;49.150;8.808;2023-02-15T05:09:10;106.47;;;22.10;;
9042;SDS011;4556;49.150;8.808;2023-02-15T05:11:39;96.03;;;22.57;;
9042;SDS011;4556;49.150;8.808;2023-02-15T05:14:06;73.97;;;25.27;;
9042;SDS011;4556;49.150;8.808;2023-02-15T05:16:33;89.43;;;21.93;;
9042;SDS011;4556;49.150;8.808;2023-02-15T05:19:01;67.57;;;21.33;;
9042;SDS011;4556;49.150;8.808;2023-02-15T05:21:28;88.83;;;21.57;;
9042;SDS011;4556;49.150;8.808;2023-02-15T05:23:55;69.57;;;22.07;;
9042;SDS011;4556;49.150;8.808;2023-02-15T05:26:23;95.67;;;24.33;;
9042;SDS011;4556;49.150;8.808;2023-02-15T05:29:10;68.80;;;22.30;;
9042;SDS011;4556;49.150;8.808;2023-02-15T05:31:37;76.07;;;23.30;;
9042;SDS011;4556;49.150;8.808;2023-02-15T05:34:04;124.43;;;24.93;;
9042;SDS011;4556;49.150;8.808;2023-02-15T05:36:32;71.67;;;21.90;;
9042;SDS011;4556;49.150;8.808;2023-02-15T05:38:59;90.03;;;25.40;;
9042;SDS011;4556;49.150;8.808;2023-02-15T05:41:26;67.80;;;24.47;;
9042;SDS011;4556;49.150;8.808;2023-02-15T05:43:54;88.57;;;23.00;;
9042;SDS011;4556;49.150;8.808;2023-02-15T05:46:23;100.03;;;24.03;;
9042;SDS011;4556;49.150;8.808;2023-02-15T05:48:50;84.67;;;23.80;;
9042;SDS011;4556;49.150;8.808;2023-02-15T05:51:17;67.73;;;23.07;;
9042;SDS011;4556;49.150;8.808;2023-02-15T05:53:45;58.47;;;23.17;;
9042;SDS011;4556;49.150;8.808;2023-02-15T05:56:12;54.23;;;25.30;;
9042;SDS011;4556;49.150;8.808;2023-02-15T05:58:40;76.70;;;24.20;;
9042;SDS011;4556;49.150;8.808;2023-02-15T06:01:08;46.10;;;22.47;;
9042;SDS011;4556;49.150;8.808;2023-02-15T06:03:37;50.23;;;21.67;;
9042;SDS011;4556;49.150;8.808;2023-02-15T06:06:04;61.60;;;20.73;;
9042;SDS011;4556;49.150;8.808;2023-02-15T06:08:32;41.17;;;20.50;;
9042;SDS011;4556;49.150;8.808;2023-02-15T06:11:00;32.97;;;19.97;;
9042;SDS011;4556;49.150;8.808;2023-02-15T06:13:27;63.57;;;22.33;;
9042;SDS011;4556;49.150;8.808;2023-02-15T06:15:55;71.13;;;20.17;;
9042;SDS011;4556;49.150;8.808;2023-02-15T06:20:56;76.73;;;21.97;;
9042;SDS011;4556;49.150;8.808;2023-02-15T06:23:23;49.80;;;21.07;;
9042;SDS011;4556;49.150;8.808;2023-02-15T06:25:50;54.27;;;21.30;;
9042;SDS011;4556;49.150;8.808;2023-02-15T06:28:18;75.07;;;23.53;;
9042;SDS011;4556;49.150;8.808;2023-02-15T06:30:45;62.40;;;23.13;;
9042;SDS011;4556;49.150;8.808;2023-02-15T06:33:12;80.53;;;22.50;;
9042;SDS011;4556;49.150;8.808;2023-02-15T06:35:40;59.77;;;21.17;;
9042;SDS011;4556;49.150;8.808;2023-02-15T06:38:08;61.17;;;20.10;;
9042;SDS011;4556;49.150;8.808;2023-02-15T06:40:36;49.60;;;20.30;;
9042;SDS011;4556;49.150;8.808;2023-02-15T06:43:03;52.90;;;20.47;;
9042;SDS011;4556;49.150;8.808;2023-02-15T06:45:30;50.13;;;19.77;;
9042;SDS011;4556;49.150;8.808;2023-02-15T06:47:57;68.43;;;20.03;;
9042;SDS011;4556;49.150;8.808;2023-02-15T06:50:24;39.57;;;19.83;;
9042;SDS011;4556;49.150;8.808;2023-02-15T06:52:54;50.13;;;20.77;;
9042;SDS011;4556;49.150;8.808;2023-02-15T06:55:24;61.03;;;21.33;;
9042;SDS011;4556;49.150;8.808;2023-02-15T06:57:52;42.57;;;21.43;;
9042;SDS011;4556;49.150;8.808;2023-02-15T07:00:19;51.93;;;21.90;;
9042;SDS011;4556;49.150;8.808;2023-02-15T07:02:48;39.23;;;21.83;;
9042;SDS011;4556;49.150;8.808;2023-02-15T07:05:20;83.73;;;23.03;;
9042;SDS011;4556;49.150;8.808;2023-02-15T07:07:47;86.93;;;22.13;;
9042;SDS011;4556;49.150;8.808;2023-02-15T07:10:14;72.43;;;20.87;;
9042;SDS011;4556;49.150;8.808;2023-02-15T07:12:43;38.57;;;20.77;;
9042;SDS011;4556;49.150;8.808;2023-02-15T07:15:11;77.93;;;22.13;;
9042;SDS011;4556;49.150;8.808;2023-02-15T07:17:39;34.10;;;19.40;;
9042;SDS011;4556;49.150;8.808;2023-02-15T07:20:07;49.03;;;21.23;;
9042;SDS011;4556;49.150;8.808;2023-02-15T07:22:36;33.77;;;18.97;;
9042;SDS011;4556;49.150;8.808;2023-02-15T07:25:04;41.90;;;19.50;;
9042;SDS011;4556;49.150;8.808;2023-02-15T07:27:32;42.77;;;21.13;;
9042;SDS011;4556;49.150;8.808;2023-02-15T07:30:00;32.27;;;18.03;;
9042;SDS011;4556;49.150;8.808;2023-02-15T07:32:28;48.93;;;20.43;;
9042;SDS011;4556;49.150;8.808;2023-02-15T07:34:56;54.13;;;21.70;;
9042;SDS011;4556;49.150;8.808;2023-02-15T07:37:23;33.40;;;19.87;;
9042;SDS011;4556;49.150;8.808;2023-02-15T07:39:51;41.33;;;19.77;;
9042;SDS011;4556;49.150;8.808;2023-02-15T07:42:18;38.17;;;19.53;;
9042;SDS011;4556;49.150;8.808;2023-02-15T07:44:46;34.47;;;18.47;;
9042;SDS011;4556;49.150;8.808;2023-02-15T07:47:15;26.00;;;16.13;;
9042;SDS011;4556;49.150;8.808;2023-02-15T07:49:42;56.90;;;19.37;;
9042;SDS011;4556;49.150;8.808;2023-02-15T07:52:09;47.07;;;17.20;;
9042;SDS011;4556;49.150;8.808;2023-02-15T07:54:37;33.00;;;17.23;;
9042;SDS011;4556;49.150;8.808;2023-02-15T07:57:03;32.43;;;16.57;;
9042;SDS011;4556;49.150;8.808;2023-02-15T07:59:31;37.23;;;17.73;;
9042;SDS011;4556;49.150;8.808;2023-02-15T08:01:58;28.03;;;17.30;;
9042;SDS011;4556;49.150;8.808;2023-02-15T08:04:26;32.60;;;17.13;;
9042;SDS011;4556;49.150;8.808;2023-02-15T08:06:54;36.90;;;16.33;;
9042;SDS011;4556;49.150;8.808;2023-02-15T08:09:21;38.97;;;18.23;;
9042;SDS011;4556;49.150;8.808;2023-02-15T08:11:48;27.90;;;17.40;;
9042;SDS011;4556;49.150;8.808;2023-02-15T08:14:16;29.87;;;16.93;;
9042;SDS011;4556;49.150;8.808;2023-02-15T08:16:46;43.07;;;19.33;;
9042;SDS011;4556;49.150;8.808;2023-02-15T08:19:17;45.43;;;21.23;;
9042;SDS011;4556;49.150;8.808;2023-02-15T08:21:47;36.03;;;19.30;;
9042;SDS011;4556;49.150;8.808;2023-02-15T08:24:17;36.43;;;18.50;;
9042;SDS011;4556;49.150;8.808;2023-02-15T08:26:45;45.73;;;19.30;;
9042;SDS011;4556;49.150;8.808;2023-02-15T08:29:13;40.03;;;18.47;;
9042;SDS011;4556;49.150;8.808;2023-02-15T08:31:44;31.33;;;18.07;;
9042;SDS011;4556;49.150;8.808;2023-02-15T08:34:13;26.67;;;17.13;;
9042;SDS011;4556;49.150;8.808;2023-02-15T08:36:43;32.90;;;19.53;;
9042;SDS011;4556;49.150;8.808;2023-02-15T08:39:13;31.40;;;18.60;;
9042;SDS011;4556;49.150;8.808;2023-02-15T08:41:41;29.27;;;18.93;;
9042;SDS011;4556;49.150;8.808;2023-02-15T08:44:13;28.67;;;18.63;;
9042;SDS011;4556;49.150;8.808;2023-02-15T08:46:43;40.97;;;19.37;;
9042;SDS011;4556;49.150;8.808;2023-02-15T08:49:17;58.57;;;20.50;;
9042;SDS011;4556;49.150;8.808;2023-02-15T08:51:46;29.73;;;18.33;;
9042;SDS011;4556;49.150;8.808;2023-02-15T08:54:16;56.00;;;27.80;;
9042;SDS011;4556;49.150;8.808;2023-02-15T08:56:44;40.57;;;24.40;;
9042;SDS011;4556;49.150;8.808;2023-02-15T08:59:12;36.40;;;22.23;;
9042;SDS011;4556;49.150;8.808;2023-02-15T09:01:41;40.97;;;24.27;;
9042;SDS011;4556;49.150;8.808;2023-02-15T09:04:09;37.77;;;20.00;;
9042;SDS011;4556;49.150;8.808;2023-02-15T09:06:38;37.17;;;19.60;;
9042;SDS011;4556;49.150;8.808;2023-02-15T09:09:07;47.07;;;19.77;;
9042;SDS011;4556;49.150;8.808;2023-02-15T09:11:37;32.10;;;18.17;;
9042;SDS011;4556;49.150;8.808;2023-02-15T09:14:06;41.27;;;16.93;;
9042;SDS011;4556;49.150;8.808;2023-02-15T09:16:36;26.17;;;17.43;;
9042;SDS011;4556;49.150;8.808;2023-02-15T09:19:04;31.03;;;18.70;;
9042;SDS011;4556;49.150;8.808;2023-02-15T09:21:35;35.33;;;18.67;;
9042;SDS011;4556;49.150;8.808;2023-02-15T09:24:04;27.83;;;18.63;;
9042;SDS011;4556;49.150;8.808;2023-02-15T09:26:34;50.07;;;21.60;;
9042;SDS011;4556;49.150;8.808;2023-02-15T09:29:04;46.40;;;20.97;;
9042;SDS011;4556;49.150;8.808;2023-02-15T09:31:32;38.47;;;20.17;;
9042;SDS011;4556;49.150;8.808;2023-02-15T09:34:03;39.10;;;20.60;;
9042;SDS011;4556;49.150;8.808;2023-02-15T09:36:31;33.03;;;19.57;;
9042;SDS011;4556;49.150;8.808;2023-02-15T09:39:00;30.73;;;19.43;;
9042;SDS011;4556;49.150;8.808;2023-02-15T09:41:36;35.70;;;20.27;;
9042;SDS011;4556;49.150;8.808;2023-02-15T09:44:21;34.47;;;19.07;;
9042;SDS011;4556;49.150;8.808;2023-02-15T09:47:02;31.57;;;18.60;;
9042;SDS011;4556;49.150;8.808;2023-02-15T09:49:52;39.37;;;20.57;;
9042;SDS011;4556;49.150;8.808;2023-02-15T09:52:40;26.93;;;18.53;;
9042;SDS011;4556;49.150;8.808;2023-02-15T09:55:22;47.60;;;18.47;;
9042;SDS011;4556;49.150;8.808;2023-02-15T09:58:01;38.83;;;17.37;;
9042;SDS011;4556;49.150;8.808;2023-02-15T10:00:38;34.07;;;17.13;;
9042;SDS011;4556;49.150;8.808;2023-02-15T10:03:18;31.13;;;18.43;;
9042;SDS011;4556;49.150;8.808;2023-02-15T10:06:11;48.53;;;21.27;;
9042;SDS011;4556;49.150;8.808;2023-02-15T10:08:55;35.07;;;19.87;;
9042;SDS011;4556;49.150;8.808;2023-02-15T10:11:32;32.93;;;18.83;;
9042;SDS011;4556;49.150;8.808;2023-02-15T10:14:15;29.77;;;18.60;;
9042;SDS011;4556;49.150;8.808;2023-02-15T10:17:06;33.57;;;20.00;;
9042;SDS011;4556;49.150;8.808;2023-02-15T10:19:51;32.80;;;19.43;;
9042;SDS011;4556;49.150;8.808;2023-02-15T10:22:33;38.30;;;22.00;;
9042;SDS011;4556;49.150;8.808;2023-02-15T10:25:10;50.83;;;30.60;;
9042;SDS011;4556;49.150;8.808;2023-02-15T10:27:49;44.97;;;22.80;;
9042;SDS011;4556;49.150;8.808;2023-02-15T10:30:17;32.13;;;21.33;;
9042;SDS011;4556;49.150;8.808;2023-02-15T10:32:53;38.27;;;22.63;;
9042;SDS011;4556;49.150;8.808;2023-02-15T10:35:29;42.10;;;20.43;;
9042;SDS011;4556;49.150;8.808;2023-02-15T10:38:13;62.77;;;36.47;;
9042;SDS011;4556;49.150;8.808;2023-02-15T10:40:51;33.50;;;19.97;;
9042;SDS011;4556;49.150;8.808;2023-02-15T10:43:33;38.00;;;21.80;;
9042;SDS011;4556;49.150;8.808;2023-02-15T10:46:14;31.60;;;19.97;;
9042;SDS011;4556;49.150;8.808;2023-02-15T10:49:01;33.87;;;19.33;;
9042;SDS011;4556;49.150;8.808;2023-02-15T10:51:40;32.83;;;19.10;;
9042;SDS011;4556;49.150;8.808;2023-02-15T10:54:21;29.03;;;19.40;;
9042;SDS011;4556;49.150;8.808;2023-02-15T10:57:02;40.47;;;19.60;;
9042;SDS011;4556;49.150;8.808;2023-02-15T10:59:49;35.37;;;20.13;;
9042;SDS011;4556;49.150;8.808;2023-02-15T11:02:35;39.87;;;20.30;;
9042;SDS011;4556;49.150;8.808;2023-02-15T11:08:05;36.07;;;18.87;;
9042;SDS011;4556;49.150;8.808;2023-02-15T11:10:37;33.47;;;20.07;;
9042;SDS011;4556;49.150;8.808;2023-02-15T11:13:08;37.47;;;20.83;;
9042;SDS011;4556;49.150;8.808;2023-02-15T11:15:39;46.23;;;20.47;;
9042;SDS011;4556;49.150;8.808;2023-02-15T11:18:11;31.07;;;20.73;;
9042;SDS011;4556;49.150;8.808;2023-02-15T11:20:47;36.53;;;22.10;;
9042;SDS011;4556;49.150;8.808;2023-02-15T11:23:20;30.00;;;19.80;;
9042;SDS011;4556;49.150;8.808;2023-02-15T11:25:52;34.53;;;22.03;;
9042;SDS011;4556;49.150;8.808;2023-02-15T11:28:24;34.80;;;21.33;;
9042;SDS011;4556;49.150;8.808;2023-02-15T11:30:58;33.07;;;21.07;;
9042;SDS011;4556;49.150;8.808;2023-02-15T11:33:33;31.83;;;20.87;;
9042;SDS011;4556;49.150;8.808;2023-02-15T11:36:08;33.33;;;21.30;;
9042;SDS011;4556;49.150;8.808;2023-02-15T11:38:43;37.50;;;21.97;;
9042;SDS011;4556;49.150;8.808;2023-02-15T11:41:13;32.87;;;20.57;;
9042;SDS011;4556;49.150;8.808;2023-02-15T11:43:46;31.63;;;21.23;;
9042;SDS011;4556;49.150;8.808;2023-02-15T11:46:19;31.60;;;21.03;;
9042;SDS011;4556;49.150;8.808;2023-02-15T11:48:46;61.97;;;36.93;;
9042;SDS011;4556;49.150;8.808;2023-02-15T11:51:19;33.30;;;22.17;;
9042;SDS011;4556;49.150;8.808;2023-02-15T11:53:48;32.67;;;22.03;;
9042;SDS011;4556;49.150;8.808;2023-02-15T11:56:17;34.50;;;22.80;;
9042;SDS011;4556;49.150;8.808;2023-02-15T11:58:47;34.20;;;22.83;;
9042;SDS011;4556;49.150;8.808;2023-02-15T12:01:20;36.37;;;23.43;;
9042;SDS011;4556;49.150;8.808;2023-02-15T12:03:54;31.60;;;20.73;;
9042;SDS011;4556;49.150;8.808;2023-02-15T12:06:26;32.93;;;21.83;;
9042;SDS011;4556;49.150;8.808;2023-02-15T12:09:00;34.17;;;22.03;;
9042;SDS011;4556;49.150;8.808;2023-02-15T12:11:33;31.40;;;20.50;;
9042;SDS011;4556;49.150;8.808;2023-02-15T12:14:04;31.30;;;20.07;;
9042;SDS011;4556;49.150;8.808;2023-02-15T12:16:33;30.30;;;20.27;;
9042;SDS011;4556;49.150;8.808;2023-02-15T12:19:09;31.60;;;20.43;;
9042;SDS011;4556;49.150;8.808;2023-02-15T12:21:48;31.63;;;22.00;;
9042;SDS011;4556;49.150;8.808;2023-02-15T12:24:18;31.97;;;21.60;;
9042;SDS011;4556;49.150;8.808;2023-02-15T12:26:59;31.27;;;21.17;;
9042;SDS011;4556;49.150;8.808;2023-02-15T12:29:29;32.90;;;21.57;;
9042;SDS011;4556;49.150;8.808;2023-02-15T12:32:01;30.30;;;21.03;;
9042;SDS011;4556;49.150;8.808;2023-02-15T12:34:30;30.87;;;19.67;;
9042;SDS011;4556;49.150;8.808;2023-02-15T12:37:02;31.53;;;19.83;;
9042;SDS011;4556;49.150;8.808;2023-02-15T12:39:36;33.67;;;20.83;;
9042;SDS011;4556;49.150;8.808;2023-02-15T12:42:16;34.07;;;21.73;;
9042;SDS011;4556;49.150;8.808;2023-02-15T12:44:52;32.97;;;20.03;;
9042;SDS011;4556;49.150;8.808;2023-02-15T12:47:23;37.77;;;21.07;;
9042;SDS011;4556;49.150;8.808;2023-02-15T12:52:46;33.17;;;22.57;;
9042;SDS011;4556;49.150;8.808;2023-02-15T12:55:21;39.50;;;24.00;;
9042;SDS011;4556;49.150;8.808;2023-02-15T12:58:04;38.93;;;23.53;;
9042;SDS011;4556;49.150;8.808;2023-02-15T13:00:32;37.53;;;24.03;;
9042;SDS011;4556;49.150;8.808;2023-02-15T13:03:00;36.97;;;24.20;;
9042;SDS011;4556;49.150;8.808;2023-02-15T13:05:30;43.57;;;27.80;;
9042;SDS011;4556;49.150;8.808;2023-02-15T13:08:02;40.83;;;24.90;;
9042;SDS011;4556;49.150;8.808;2023-02-15T13:10:36;41.87;;;25.07;;
9042;SDS011;4556;49.150;8.808;2023-02-15T13:13:08;41.23;;;25.40;;
9042;SDS011;4556;49.150;8.808;2023-02-15T13:15:37;40.07;;;26.03;;
9042;SDS011;4556;49.150;8.808;2023-02-15T13:18:10;37.87;;;25.17;;
9042;SDS011;4556;49.150;8.808;2023-02-15T13:20:40;41.73;;;26.43;;
9042;SDS011;4556;49.150;8.808;2023-02-15T13:23:13;42.93;;;27.80;;
9042;SDS011;4556;49.150;8.808;2023-02-15T13:25:52;38.57;;;25.13;;
9042;SDS011;4556;49.150;8.808;2023-02-15T13:28:22;39.80;;;25.50;;
9042;SDS011;4556;49.150;8.808;2023-02-15T13:30:53;37.73;;;24.73;;
9042;SDS011;4556;49.150;8.808;2023-02-15T13:33:23;32.97;;;22.57;;
9042;SDS011;4556;49.150;8.808;2023-02-15T13:35:58;33.63;;;22.33;;
9042;SDS011;4556;49.150;8.808;2023-02-15T13:41:46;37.60;;;24.27;;
9042;SDS011;4556;49.150;8.808;2023-02-15T13:44:19;39.60;;;25.97;;
9042;SDS011;4556;49.150;8.808;2023-02-15T13:47:03;41.53;;;28.23;;
9042;SDS011;4556;49.150;8.808;2023-02-15T13:49:46;40.40;;;26.17;;
9042;SDS011;4556;49.150;8.808;2023-02-15T13:52:21;38.63;;;25.47;;
9042;SDS011;4556;49.150;8.808;2023-02-15T13:55:00;37.87;;;25.47;;
9042;SDS011;4556;49.150;8.808;2023-02-15T13:57:54;36.13;;;23.90;;
9042;SDS011;4556;49.150;8.808;2023-02-15T14:00:36;36.50;;;24.20;;
9042;SDS011;4556;49.150;8.808;2023-02-15T14:03:24;36.77;;;23.13;;
9042;SDS011;4556;49.150;8.808;2023-02-15T14:06:07;34.87;;;24.30;;
9042;SDS011;4556;49.150;8.808;2023-02-15T14:08:48;33.87;;;24.00;;
9042;SDS011;4556;49.150;8.808;2023-02-15T14:11:27;33.80;;;24.07;;
9042;SDS011;4556;49.150;8.808;2023-02-15T14:17:01;32.93;;;23.17;;
9042;SDS011;4556;49.150;8.808;2023-02-15T14:19:37;35.97;;;24.13;;
9042;SDS011;4556;49.150;8.808;2023-02-15T14:22:11;32.93;;;22.17;;
9042;SDS011;4556;49.150;8.808;2023-02-15T14:24:50;30.93;;;23.07;;
9042;SDS011;4556;49.150;8.808;2023-02-15T14:27:32;31.97;;;22.67;;
9042;SDS011;4556;49.150;8.808;2023-02-15T14:30:13;30.00;;;21.30;;
9042;SDS011;4556;49.150;8.808;2023-02-15T14:32:46;33.80;;;23.73;;
9042;SDS011;4556;49.150;8.808;2023-02-15T14:35:18;29.73;;;21.67;;
9042;SDS011;4556;49.150;8.808;2023-02-15T14:37:50;29.77;;;22.17;;
9042;SDS011;4556;49.150;8.808;2023-02-15T14:40:26;31.73;;;22.93;;
9042;SDS011;4556;49.150;8.808;2023-02-15T14:43:22;28.83;;;21.27;;
9042;SDS011;4556;49.150;8.808;2023-02-15T14:45:58;30.83;;;23.47;;
9042;SDS011;4556;49.150;8.808;2023-02-15T14:48:31;29.83;;;21.33;;
9042;SDS011;4556;49.150;8.808;2023-02-15T14:51:01;35.23;;;23.23;;
9042;SDS011;4556;49.150;8.808;2023-02-15T14:56:17;37.10;;;26.10;;
9042;SDS011;4556;49.150;8.808;2023-02-15T14:58:57;34.77;;;25.70;;
9042;SDS011;4556;49.150;8.808;2023-02-15T15:01:58;29.53;;;20.00;;
9042;SDS011;4556;49.150;8.808;2023-02-15T15:04:31;26.67;;;19.93;;
9042;SDS011;4556;49.150;8.808;2023-02-15T15:07:03;27.33;;;21.30;;
9042;SDS011;4556;49.150;8.808;2023-02-15T15:09:36;27.50;;;21.27;;
9042;SDS011;4556;49.150;8.808;2023-02-15T15:12:18;26.53;;;20.63;;
9042;SDS011;4556;49.150;8.808;2023-02-15T15:15:05;25.57;;;20.40;;
9042;SDS011;4556;49.150;8.808;2023-02-15T15:29:00;30.27;;;21.93;;
9042;SDS011;4556;49.150;8.808;2023-02-15T15:34:18;38.73;;;29.80;;
9042;SDS011;4556;49.150;8.808;2023-02-15T15:43:27;28.13;;;21.63;;
9042;SDS011;4556;49.150;8.808;2023-02-15T15:46:37;28.87;;;20.97;;
9042;SDS011;4556;49.150;8.808;2023-02-15T15:49:21;32.90;;;25.03;;
9042;SDS011;4556;49.150;8.808;2023-02-15T15:51:51;30.07;;;23.33;;
9042;SDS011;4556;49.150;8.808;2023-02-15T15:54:20;33.77;;;26.27;;
9042;SDS011;4556;49.150;8.808;2023-02-15T15:56:49;35.20;;;26.33;;